X  Schlie├čen Metar Luftfahrt Wetterdaten     EHRD Rotterdam The Hague Airport
Temperatur
26°C Temperatur
19°C Taupunkt
65% Feuchtigkeit



Wind
10 KM/H
6 MPH
3 M/S
5 KTS



50°
NO
Aktuelle Wetterlage

Leicht  Regen Leicht Regen
Luftdruck 1013.92 (hPa) - 29.94 (inHg)
Sichtweite 6.2 (Meile) - 10 (km)
Flughafen
Flughafen Code EHRD

Position : Rotterdam The Hague Airport
Entfernung: 16 (km)

Metar:
EHRD 101955Z AUTO 05005KT 9999 -RA NSC 26/19 Q1014 NOSIG

Zeit: 10-08-2020 21:55 CEST